Newvida — V7KQ7 — position and weather

sailwx.info

Track history (hours):
 
Tides and Currents Weather Stations Pressure Air Temp Water Temp Dewpoint Dewpoint Depression Visibility Wind Speed Wind Dir Waves Ship Positions

Newvida

Last reported at 2018-Jan-04 03:18 UTC. Time now 2018-Jan-18 17:56 UTC.
Position N 09°11' W 079°53'.
Warning: this ship's position is 14 days out of date.

Length 48 m; draft 2.4 m.

Type: Pleasure craft. MMSI: 538080049.

Date/timePositionNaut miles runAvg speedWind from/ knotsBaromVisibWave heightAir tempDewpointWater temp
2018-Jan-04 03:18N 09°11' W 079°53'311.3
2018-Jan-04 03:00N 09°13' W 079°55'3 6.2
2018-Jan-04 02:31N 09°16' W 079°55'0 0.4
2018-Jan-04 02:00N 09°16' W 079°55'0 0.4
2018-Jan-04 01:30N 09°17' W 079°55'0 0.5
2018-Jan-04 01:01N 09°17' W 079°55'1 1.3
2018-Jan-04 00:31N 09°18' W 079°55'0 0.6
2018-Jan-04 00:00N 09°18' W 079°55'2 3.8
2018-Jan-03 23:30N 09°20' W 079°55'1 1.7
2018-Jan-03 22:58N 09°21' W 079°55'0 0.0
2018-Jan-03 22:28N 09°21' W 079°55'0 0.1
2018-Jan-03 21:58N 09°21' W 079°55'0 0.0
2018-Jan-03 21:28N 09°21' W 079°55'0 0.0
2018-Jan-03 20:58N 09°21' W 079°55'0 0.0
2018-Jan-03 20:28N 09°21' W 079°55'0 0.1
2018-Jan-03 19:58N 09°21' W 079°55'0 0.0
2018-Jan-03 19:28N 09°21' W 079°55'0 0.1
2018-Jan-03 19:00N 09°21' W 079°55'2 3.1
2018-Jan-03 18:29N 09°22' W 079°54'0 0.1
2018-Jan-03 17:59N 09°22' W 079°54'0 0.1
2018-Jan-03 17:23N 09°22' W 079°54'0 0.0
2018-Jan-03 16:59N 09°22' W 079°54'0 0.1
2018-Jan-03 16:29N 09°22' W 079°54'0 0.0
2018-Jan-03 15:59N 09°22' W 079°54'0 0.0
2018-Jan-03 15:29N 09°22' W 079°54'0 0.0
2018-Jan-03 14:59N 09°22' W 079°55'0 0.0
2018-Jan-03 14:29N 09°22' W 079°54'0 0.0
2018-Jan-03 13:59N 09°22' W 079°54'0 0.0
2018-Jan-03 13:29N 09°22' W 079°54'0 0.0
2018-Jan-03 12:59N 09°22' W 079°55'0 0.0
2018-Jan-03 12:29N 09°22' W 079°55'0 0.0
2018-Jan-03 11:53N 09°22' W 079°55'0 0.0
2018-Jan-03 11:29N 09°22' W 079°55'0 0.0
2018-Jan-03 10:59N 09°22' W 079°55'0 0.0
2018-Jan-03 10:29N 09°22' W 079°54'0 0.0
2018-Jan-03 09:59N 09°22' W 079°54'0 0.0
2018-Jan-03 09:29N 09°22' W 079°55'0 0.0
2018-Jan-03 08:59N 09°22' W 079°55'0 0.0
2018-Jan-03 08:29N 09°22' W 079°54'0 0.0
2018-Jan-03 07:59N 09°22' W 079°54'0 0.0
2018-Jan-03 07:29N 09°22' W 079°54'0 0.0
2018-Jan-03 06:59N 09°22' W 079°54'0 0.0
2018-Jan-03 06:29N 09°22' W 079°54'0 0.0
2018-Jan-03 05:59N 09°22' W 079°54'0 0.5
2018-Jan-03 05:30N 09°22' W 079°55'3 6.3
2018-Jan-03 05:00N 09°26' W 079°55'3 6.5
2018-Jan-03 04:30N 09°29' W 079°54'510.4
2018-Jan-03 04:00N 09°34' W 079°52'510.3
2018-Jan-03 03:29N 09°39' W 079°51'  
2017-Dec-30 06:50N 16°54' W 062°14'512.3
2017-Dec-30 06:27N 16°55' W 062°09'512.3
2017-Dec-30 06:00N 16°56' W 062°03'612.1
2017-Dec-30 05:30N 16°58' W 061°57'612.2
2017-Dec-30 05:00N 16°59' W 061°51'5 9.3
2017-Dec-30 04:30N 17°01' W 061°46'0 0.5
2017-Dec-30 03:59N 17°01' W 061°46'0 0.0
2017-Dec-30 03:29N 17°01' W 061°46'0 0.0
2017-Dec-30 02:59N 17°01' W 061°46'0 0.0
2017-Dec-30 02:29N 17°01' W 061°46'0 0.0
2017-Dec-30 01:59N 17°01' W 061°46'0 0.0
2017-Dec-30 01:29N 17°01' W 061°46'0 0.0
2017-Dec-30 00:59N 17°01' W 061°46'0 0.0
2017-Dec-30 00:29N 17°01' W 061°46'0 0.0
2017-Dec-29 23:59N 17°01' W 061°46'0 0.0
2017-Dec-29 23:29N 17°01' W 061°46'0 0.0
2017-Dec-29 22:59N 17°01' W 061°46'0 0.0
2017-Dec-29 22:29N 17°01' W 061°46'0 0.0
2017-Dec-29 21:59N 17°01' W 061°46'0 0.0
2017-Dec-29 21:29N 17°01' W 061°46'0 0.0
2017-Dec-29 20:59N 17°01' W 061°46'0 0.0
2017-Dec-29 20:29N 17°01' W 061°46'0 0.0
2017-Dec-29 19:59N 17°01' W 061°46'0 0.0
2017-Dec-29 19:29N 17°01' W 061°46'0 0.0
2017-Dec-29 18:59N 17°01' W 061°46'0 0.0
2017-Dec-29 18:29N 17°01' W 061°46'0 0.0
2017-Dec-29 17:59N 17°01' W 061°46'0 0.0
2017-Dec-29 17:29N 17°01' W 061°46'0 0.0
2017-Dec-29 16:59N 17°01' W 061°46'0 0.0
2017-Dec-29 16:29N 17°01' W 061°46'0 0.0
2017-Dec-29 15:59N 17°01' W 061°46'0 0.0
2017-Dec-29 15:29N 17°01' W 061°46'0 0.0
2017-Dec-29 14:59N 17°01' W 061°46'0 0.0
2017-Dec-29 14:29N 17°01' W 061°46'0 0.0
2017-Dec-29 13:59N 17°01' W 061°46'0 0.0
2017-Dec-29 13:29N 17°01' W 061°46'0 0.0
2017-Dec-29 12:59N 17°01' W 061°46'0 0.0
2017-Dec-29 12:29N 17°01' W 061°46'0 0.0
2017-Dec-29 11:59N 17°01' W 061°46'0 0.0
2017-Dec-29 11:29N 17°01' W 061°46'0 0.0
2017-Dec-29 10:59N 17°01' W 061°46'0 0.0
2017-Dec-29 10:29N 17°01' W 061°46'0 0.0
2017-Dec-29 09:59N 17°01' W 061°46'0 0.0
2017-Dec-29 09:29N 17°01' W 061°46'0 0.0
2017-Dec-29 08:59N 17°01' W 061°46'0 0.0
2017-Dec-29 08:29N 17°01' W 061°46'0 0.0
2017-Dec-29 07:59N 17°01' W 061°46'0 0.0
2017-Dec-29 07:29N 17°01' W 061°46'0 0.0
2017-Dec-29 06:59N 17°01' W 061°46'0 0.0
2017-Dec-29 06:29N 17°01' W 061°46'0 0.0
2017-Dec-29 05:59N 17°01' W 061°46'0 0.0
2017-Dec-29 05:29N 17°01' W 061°46'0 0.0
2017-Dec-29 04:59N 17°01' W 061°46'0 0.0
2017-Dec-29 04:29N 17°01' W 061°46'0 0.0
2017-Dec-29 03:59N 17°01' W 061°46'0 0.0
2017-Dec-29 03:29N 17°01' W 061°46'0 0.0
2017-Dec-29 02:59N 17°01' W 061°46'0 0.0
2017-Dec-29 02:29N 17°01' W 061°46'0 0.0
2017-Dec-29 01:59N 17°01' W 061°46'0 0.0
2017-Dec-29 01:29N 17°01' W 061°46'0 0.0
2017-Dec-29 00:59N 17°01' W 061°46'0 0.0
2017-Dec-29 00:29N 17°01' W 061°46'0 0.0
2017-Dec-28 23:59N 17°01' W 061°46'0 0.0
2017-Dec-28 23:29N 17°01' W 061°46'0 0.0
2017-Dec-28 22:59N 17°01' W 061°46'0 0.0
2017-Dec-28 22:29N 17°01' W 061°46'0 0.0
2017-Dec-28 21:59N 17°01' W 061°46'0 0.0
2017-Dec-28 21:29N 17°01' W 061°46'0 0.0
2017-Dec-28 20:59N 17°01' W 061°46'0 0.0
2017-Dec-28 20:29N 17°01' W 061°46'0 0.0
2017-Dec-28 19:59N 17°01' W 061°46'0 0.0
2017-Dec-28 19:29N 17°01' W 061°46'0 0.0
2017-Dec-28 18:59N 17°01' W 061°46'0 0.0
2017-Dec-28 18:29N 17°01' W 061°46'0 0.0
2017-Dec-28 17:59N 17°01' W 061°46'0 0.0
2017-Dec-28 17:29N 17°01' W 061°46'0 0.0
2017-Dec-28 16:59N 17°01' W 061°46'0 0.0
2017-Dec-28 16:29N 17°01' W 061°46'0 0.0
2017-Dec-27 19:29N 17°01' W 061°46'0 0.0
2017-Dec-27 18:59N 17°01' W 061°46'1 1.5
2017-Dec-27 18:30N 17°01' W 061°47'510.8
2017-Dec-27 18:00N 16°60' W 061°53'611.0
2017-Dec-27 17:30N 17°04' W 061°56'3 6.2
2017-Dec-27 16:59N 17°06' W 061°54'0 0.1
2017-Dec-27 16:29N 17°06' W 061°54'0 0.0
2017-Dec-27 15:59N 17°06' W 061°54'0 0.0
2017-Dec-27 15:29N 17°06' W 061°54'0 0.1
2017-Dec-27 14:59N 17°06' W 061°54'0 0.0
2017-Dec-27 14:29N 17°06' W 061°54'0 0.0
2017-Dec-27 13:59N 17°06' W 061°54'0 0.0
2017-Dec-27 13:29N 17°06' W 061°54'0 0.0
2017-Dec-27 12:56N 17°06' W 061°54'0 0.0
2017-Dec-27 12:29N 17°06' W 061°54'0 0.0
2017-Dec-27 11:59N 17°06' W 061°54'0 0.0
2017-Dec-27 11:29N 17°06' W 061°54'0 0.0
2017-Dec-27 10:59N 17°06' W 061°54'0 0.0
2017-Dec-27 10:29N 17°06' W 061°54'0 0.0
2017-Dec-27 09:59N 17°06' W 061°54'0 0.0
2017-Dec-27 09:26N 17°06' W 061°54'0 0.0
2017-Dec-27 08:59N 17°06' W 061°54'0 0.0
2017-Dec-27 08:29N 17°06' W 061°54'0 0.0
2017-Dec-27 07:59N 17°06' W 061°54'0 0.0
2017-Dec-27 07:29N 17°06' W 061°54'0 0.0
2017-Dec-27 06:59N 17°06' W 061°54'0 0.0
2017-Dec-27 06:29N 17°06' W 061°54'0 0.1
2017-Dec-27 05:53N 17°06' W 061°54'0 0.1
2017-Dec-27 05:29N 17°06' W 061°54'0 0.1
2017-Dec-27 04:59N 17°06' W 061°54'0 0.0
2017-Dec-27 04:29N 17°06' W 061°54'0 0.0
2017-Dec-27 03:59N 17°06' W 061°54'0 0.0
2017-Dec-27 03:29N 17°06' W 061°54'0 0.0
2017-Dec-27 02:59N 17°06' W 061°54'0 0.0
2017-Dec-27 02:29N 17°06' W 061°54'0 0.0
2017-Dec-27 01:59N 17°06' W 061°54'0 0.0
2017-Dec-27 01:26N 17°06' W 061°54'0 0.1
2017-Dec-27 00:59N 17°06' W 061°54'0 0.0
2017-Dec-27 00:29N 17°06' W 061°54'0 0.0
2017-Dec-26 23:59N 17°06' W 061°54'0 0.0
2017-Dec-26 23:29N 17°06' W 061°54'0 0.0
2017-Dec-26 22:59N 17°06' W 061°54'0 0.0
2017-Dec-26 22:26N 17°06' W 061°54'0 0.0
2017-Dec-26 21:59N 17°06' W 061°54'0 0.0
2017-Dec-26 21:29N 17°06' W 061°54'0 0.0
2017-Dec-26 20:59N 17°06' W 061°54'0 0.0
2017-Dec-26 20:29N 17°06' W 061°54'0 0.1
2017-Dec-26 19:59N 17°06' W 061°54'0 0.1
2017-Dec-26 19:29N 17°06' W 061°54'0 0.1
2017-Dec-26 18:56N 17°06' W 061°54'0 0.0
2017-Dec-26 18:29N 17°06' W 061°54'0 0.0
2017-Dec-26 17:59N 17°06' W 061°54'0 0.0
2017-Dec-26 17:26N 17°06' W 061°54'0 0.1
2017-Dec-26 16:59N 17°06' W 061°54'0 0.1
2017-Dec-26 16:29N 17°06' W 061°54'0 0.0
2017-Dec-26 15:59N 17°06' W 061°54'0 0.0
2017-Dec-26 15:29N 17°06' W 061°54'0 0.1
2017-Dec-26 14:59N 17°06' W 061°54'0 0.1
2017-Dec-26 14:29N 17°06' W 061°54'0 0.0
2017-Dec-26 13:59N 17°06' W 061°54'0 0.1
2017-Dec-26 13:29N 17°06' W 061°54'0 0.1
2017-Dec-26 12:59N 17°06' W 061°54'0 0.1
2017-Dec-26 12:29N 17°06' W 061°54'0 0.1
2017-Dec-26 11:59N 17°06' W 061°54'0 0.1
2017-Dec-26 11:26N 17°06' W 061°54'0 0.1
2017-Dec-26 10:59N 17°06' W 061°54'0 0.0
2017-Dec-26 10:29N 17°06' W 061°54'0 0.0
2017-Dec-26 09:59N 17°06' W 061°54'0 0.0
2017-Dec-26 09:29N 17°06' W 061°54'0 0.0
2017-Dec-26 08:59N 17°06' W 061°54'0 0.0
2017-Dec-26 08:29N 17°06' W 061°54'0 0.0
2017-Dec-26 07:59N 17°06' W 061°54'0 0.0
2017-Dec-26 07:29N 17°06' W 061°54'0 0.0
2017-Dec-26 06:59N 17°06' W 061°54'0 0.0
2017-Dec-26 06:29N 17°06' W 061°54'0 0.0
2017-Dec-26 05:59N 17°06' W 061°54'0 0.0
2017-Dec-26 05:29N 17°06' W 061°54'0 0.0
2017-Dec-26 04:59N 17°06' W 061°54'0 0.0
2017-Dec-26 04:26N 17°06' W 061°54'0 0.0
2017-Dec-26 03:59N 17°06' W 061°54'0 0.0
2017-Dec-26 03:29N 17°06' W 061°54'0 0.0
2017-Dec-26 02:59N 17°06' W 061°54'0 0.0
2017-Dec-26 02:29N 17°06' W 061°54'0 0.0
2017-Dec-26 01:59N 17°06' W 061°54'0 0.0
2017-Dec-26 01:23N 17°06' W 061°54'0 0.0
2017-Dec-26 00:59N 17°06' W 061°54'0 0.0
2017-Dec-26 00:29N 17°06' W 061°54'0 0.1
2017-Dec-25 23:59N 17°06' W 061°54'0 0.0
2017-Dec-25 23:29N 17°06' W 061°54'0 0.0
2017-Dec-25 22:56N 17°06' W 061°54'0 0.0
2017-Dec-25 22:29N 17°06' W 061°54'0 0.0
2017-Dec-25 21:59N 17°06' W 061°54'0 0.5
2017-Dec-25 21:30N 17°06' W 061°54'0 0.0
2017-Dec-25 21:00N 17°06' W 061°54'0 0.0
2017-Dec-25 20:30N 17°06' W 061°54'0 0.1
2017-Dec-25 20:00N 17°06' W 061°54'0 0.1
2017-Dec-25 19:30N 17°06' W 061°54'0 0.0
2017-Dec-25 19:00N 17°06' W 061°54'0 0.0
2017-Dec-25 18:30N 17°06' W 061°54'0 0.4
2017-Dec-25 17:57N 17°06' W 061°54'0 0.1
2017-Dec-25 17:30N 17°06' W 061°54'0 0.0
2017-Dec-25 17:00N 17°06' W 061°54'0 0.0
2017-Dec-25 16:30N 17°06' W 061°54'0 0.0
2017-Dec-25 16:00N 17°06' W 061°54'0 0.0
2017-Dec-25 15:30N 17°06' W 061°54'0 0.0
2017-Dec-25 14:57N 17°06' W 061°54'0 0.0
2017-Dec-25 14:30N 17°06' W 061°54'0 0.0
2017-Dec-25 14:00N 17°06' W 061°54'0 0.0
2017-Dec-25 13:30N 17°06' W 061°54'0 0.0
2017-Dec-25 13:00N 17°06' W 061°54'0 0.0
2017-Dec-25 12:30N 17°06' W 061°54'0 0.0
2017-Dec-25 12:00N 17°06' W 061°54'0 0.0
2017-Dec-25 11:30N 17°06' W 061°54'0 0.0
2017-Dec-25 10:57N 17°06' W 061°54'0 0.0
2017-Dec-25 10:30N 17°06' W 061°54'0 0.0
2017-Dec-25 10:00N 17°06' W 061°54'0 0.0
2017-Dec-25 09:30N 17°06' W 061°54'0 0.0
2017-Dec-25 09:00N 17°06' W 061°54'0 0.0
2017-Dec-25 08:30N 17°06' W 061°54'0 0.0
2017-Dec-25 08:00N 17°06' W 061°54'0 0.0
2017-Dec-25 07:30N 17°06' W 061°54'0 0.0
2017-Dec-25 07:00N 17°06' W 061°54'0 0.0
2017-Dec-25 06:30N 17°06' W 061°54'0 0.0
2017-Dec-25 06:00N 17°06' W 061°54'0 0.0
2017-Dec-25 05:30N 17°06' W 061°54'0 0.0
2017-Dec-25 05:00N 17°06' W 061°54'0 0.0
2017-Dec-25 04:30N 17°06' W 061°54'0 0.0
2017-Dec-25 04:00N 17°06' W 061°54'0 0.0
2017-Dec-25 03:30N 17°06' W 061°54'  
Track history (hours):
 
Tides and Currents Weather Stations Pressure Air Temp Water Temp Dewpoint Dewpoint Depression Visibility Wind Speed Wind Dir Waves Ship Positions

Newvida

Last reported at 2018-Jan-04 03:18 UTC. Time now 2018-Jan-18 17:56 UTC.
Position N 09°11' W 079°53'.
Warning: this ship's position is 14 days out of date.

Length 48 m; draft 2.4 m.

Type: Pleasure craft. MMSI: 538080049.

Date/timePositionNaut miles runAvg speedWind from/ knotsBaromVisibWave heightAir tempDewpointWater temp
2018-Jan-04 03:18N 09°11' W 079°53'311.3
2018-Jan-04 03:00N 09°13' W 079°55'3 6.2
2018-Jan-04 02:31N 09°16' W 079°55'0 0.4
2018-Jan-04 02:00N 09°16' W 079°55'0 0.4
2018-Jan-04 01:30N 09°17' W 079°55'0 0.5
2018-Jan-04 01:01N 09°17' W 079°55'1 1.3
2018-Jan-04 00:31N 09°18' W 079°55'0 0.6
2018-Jan-04 00:00N 09°18' W 079°55'2 3.8
2018-Jan-03 23:30N 09°20' W 079°55'1 1.7
2018-Jan-03 22:58N 09°21' W 079°55'0 0.0
2018-Jan-03 22:28N 09°21' W 079°55'0 0.1
2018-Jan-03 21:58N 09°21' W 079°55'0 0.0
2018-Jan-03 21:28N 09°21' W 079°55'0 0.0
2018-Jan-03 20:58N 09°21' W 079°55'0 0.0
2018-Jan-03 20:28N 09°21' W 079°55'0 0.1
2018-Jan-03 19:58N 09°21' W 079°55'0 0.0
2018-Jan-03 19:28N 09°21' W 079°55'0 0.1
2018-Jan-03 19:00N 09°21' W 079°55'2 3.1
2018-Jan-03 18:29N 09°22' W 079°54'0 0.1
2018-Jan-03 17:59N 09°22' W 079°54'0 0.1
2018-Jan-03 17:23N 09°22' W 079°54'0 0.0
2018-Jan-03 16:59N 09°22' W 079°54'0 0.1
2018-Jan-03 16:29N 09°22' W 079°54'0 0.0
2018-Jan-03 15:59N 09°22' W 079°54'0 0.0
2018-Jan-03 15:29N 09°22' W 079°54'0 0.0
2018-Jan-03 14:59N 09°22' W 079°55'0 0.0
2018-Jan-03 14:29N 09°22' W 079°54'0 0.0
2018-Jan-03 13:59N 09°22' W 079°54'0 0.0
2018-Jan-03 13:29N 09°22' W 079°54'0 0.0
2018-Jan-03 12:59N 09°22' W 079°55'0 0.0
2018-Jan-03 12:29N 09°22' W 079°55'0 0.0
2018-Jan-03 11:53N 09°22' W 079°55'0 0.0
2018-Jan-03 11:29N 09°22' W 079°55'0 0.0
2018-Jan-03 10:59N 09°22' W 079°55'0 0.0
2018-Jan-03 10:29N 09°22' W 079°54'0 0.0
2018-Jan-03 09:59N 09°22' W 079°54'0 0.0
2018-Jan-03 09:29N 09°22' W 079°55'0 0.0
2018-Jan-03 08:59N 09°22' W 079°55'0 0.0
2018-Jan-03 08:29N 09°22' W 079°54'0 0.0
2018-Jan-03 07:59N 09°22' W 079°54'0 0.0
2018-Jan-03 07:29N 09°22' W 079°54'0 0.0
2018-Jan-03 06:59N 09°22' W 079°54'0 0.0
2018-Jan-03 06:29N 09°22' W 079°54'0 0.0
2018-Jan-03 05:59N 09°22' W 079°54'0 0.5
2018-Jan-03 05:30N 09°22' W 079°55'3 6.3
2018-Jan-03 05:00N 09°26' W 079°55'3 6.5
2018-Jan-03 04:30N 09°29' W 079°54'510.4
2018-Jan-03 04:00N 09°34' W 079°52'510.3
2018-Jan-03 03:29N 09°39' W 079°51'  
2017-Dec-30 06:50N 16°54' W 062°14'512.3
2017-Dec-30 06:27N 16°55' W 062°09'512.3
2017-Dec-30 06:00N 16°56' W 062°03'612.1
2017-Dec-30 05:30N 16°58' W 061°57'612.2
2017-Dec-30 05:00N 16°59' W 061°51'5 9.3
2017-Dec-30 04:30N 17°01' W 061°46'0 0.5
2017-Dec-30 03:59N 17°01' W 061°46'0 0.0
2017-Dec-30 03:29N 17°01' W 061°46'0 0.0
2017-Dec-30 02:59N 17°01' W 061°46'0 0.0
2017-Dec-30 02:29N 17°01' W 061°46'0 0.0
2017-Dec-30 01:59N 17°01' W 061°46'0 0.0
2017-Dec-30 01:29N 17°01' W 061°46'0 0.0
2017-Dec-30 00:59N 17°01' W 061°46'0 0.0
2017-Dec-30 00:29N 17°01' W 061°46'0 0.0
2017-Dec-29 23:59N 17°01' W 061°46'0 0.0
2017-Dec-29 23:29N 17°01' W 061°46'0 0.0
2017-Dec-29 22:59N 17°01' W 061°46'0 0.0
2017-Dec-29 22:29N 17°01' W 061°46'0 0.0
2017-Dec-29 21:59N 17°01' W 061°46'0 0.0
2017-Dec-29 21:29N 17°01' W 061°46'0 0.0
2017-Dec-29 20:59N 17°01' W 061°46'0 0.0
2017-Dec-29 20:29N 17°01' W 061°46'0 0.0
2017-Dec-29 19:59N 17°01' W 061°46'0 0.0
2017-Dec-29 19:29N 17°01' W 061°46'0 0.0
2017-Dec-29 18:59N 17°01' W 061°46'0 0.0
2017-Dec-29 18:29N 17°01' W 061°46'0 0.0
2017-Dec-29 17:59N 17°01' W 061°46'0 0.0
2017-Dec-29 17:29N 17°01' W 061°46'0 0.0
2017-Dec-29 16:59N 17°01' W 061°46'0 0.0
2017-Dec-29 16:29N 17°01' W 061°46'0 0.0
2017-Dec-29 15:59N 17°01' W 061°46'0 0.0
2017-Dec-29 15:29N 17°01' W 061°46'0 0.0
2017-Dec-29 14:59N 17°01' W 061°46'0 0.0
2017-Dec-29 14:29N 17°01' W 061°46'0 0.0
2017-Dec-29 13:59N 17°01' W 061°46'0 0.0
2017-Dec-29 13:29N 17°01' W 061°46'0 0.0
2017-Dec-29 12:59N 17°01' W 061°46'0 0.0
2017-Dec-29 12:29N 17°01' W 061°46'0 0.0
2017-Dec-29 11:59N 17°01' W 061°46'0 0.0
2017-Dec-29 11:29N 17°01' W 061°46'0 0.0
2017-Dec-29 10:59N 17°01' W 061°46'0 0.0
2017-Dec-29 10:29N 17°01' W 061°46'0 0.0
2017-Dec-29 09:59N 17°01' W 061°46'0 0.0
2017-Dec-29 09:29N 17°01' W 061°46'0 0.0
2017-Dec-29 08:59N 17°01' W 061°46'0 0.0
2017-Dec-29 08:29N 17°01' W 061°46'0 0.0
2017-Dec-29 07:59N 17°01' W 061°46'0 0.0
2017-Dec-29 07:29N 17°01' W 061°46'0 0.0
2017-Dec-29 06:59N 17°01' W 061°46'0 0.0
2017-Dec-29 06:29N 17°01' W 061°46'0 0.0
2017-Dec-29 05:59N 17°01' W 061°46'0 0.0
2017-Dec-29 05:29N 17°01' W 061°46'0 0.0
2017-Dec-29 04:59N 17°01' W 061°46'0 0.0
2017-Dec-29 04:29N 17°01' W 061°46'0 0.0
2017-Dec-29 03:59N 17°01' W 061°46'0 0.0
2017-Dec-29 03:29N 17°01' W 061°46'0 0.0
2017-Dec-29 02:59N 17°01' W 061°46'0 0.0
2017-Dec-29 02:29N 17°01' W 061°46'0 0.0
2017-Dec-29 01:59N 17°01' W 061°46'0 0.0
2017-Dec-29 01:29N 17°01' W 061°46'0 0.0
2017-Dec-29 00:59N 17°01' W 061°46'0 0.0
2017-Dec-29 00:29N 17°01' W 061°46'0 0.0
2017-Dec-28 23:59N 17°01' W 061°46'0 0.0
2017-Dec-28 23:29N 17°01' W 061°46'0 0.0
2017-Dec-28 22:59N 17°01' W 061°46'0 0.0
2017-Dec-28 22:29N 17°01' W 061°46'0 0.0
2017-Dec-28 21:59N 17°01' W 061°46'0 0.0
2017-Dec-28 21:29N 17°01' W 061°46'0 0.0
2017-Dec-28 20:59N 17°01' W 061°46'0 0.0
2017-Dec-28 20:29N 17°01' W 061°46'0 0.0
2017-Dec-28 19:59N 17°01' W 061°46'0 0.0
2017-Dec-28 19:29N 17°01' W 061°46'0 0.0
2017-Dec-28 18:59N 17°01' W 061°46'0 0.0
2017-Dec-28 18:29N 17°01' W 061°46'0 0.0
2017-Dec-28 17:59N 17°01' W 061°46'0 0.0
2017-Dec-28 17:29N 17°01' W 061°46'0 0.0
2017-Dec-28 16:59N 17°01' W 061°46'0 0.0
2017-Dec-28 16:29N 17°01' W 061°46'0 0.0
2017-Dec-27 19:29N 17°01' W 061°46'0 0.0
2017-Dec-27 18:59N 17°01' W 061°46'1 1.5
2017-Dec-27 18:30N 17°01' W 061°47'510.8
2017-Dec-27 18:00N 16°60' W 061°53'611.0
2017-Dec-27 17:30N 17°04' W 061°56'3 6.2
2017-Dec-27 16:59N 17°06' W 061°54'0 0.1
2017-Dec-27 16:29N 17°06' W 061°54'0 0.0
2017-Dec-27 15:59N 17°06' W 061°54'0 0.0
2017-Dec-27 15:29N 17°06' W 061°54'0 0.1
2017-Dec-27 14:59N 17°06' W 061°54'0 0.0
2017-Dec-27 14:29N 17°06' W 061°54'0 0.0
2017-Dec-27 13:59N 17°06' W 061°54'0 0.0
2017-Dec-27 13:29N 17°06' W 061°54'0 0.0
2017-Dec-27 12:56N 17°06' W 061°54'0 0.0
2017-Dec-27 12:29N 17°06' W 061°54'0 0.0
2017-Dec-27 11:59N 17°06' W 061°54'0 0.0
2017-Dec-27 11:29N 17°06' W 061°54'0 0.0
2017-Dec-27 10:59N 17°06' W 061°54'0 0.0
2017-Dec-27 10:29N 17°06' W 061°54'0 0.0
2017-Dec-27 09:59N 17°06' W 061°54'0 0.0
2017-Dec-27 09:26N 17°06' W 061°54'0 0.0
2017-Dec-27 08:59N 17°06' W 061°54'0 0.0
2017-Dec-27 08:29N 17°06' W 061°54'0 0.0
2017-Dec-27 07:59N 17°06' W 061°54'0 0.0
2017-Dec-27 07:29N 17°06' W 061°54'0 0.0
2017-Dec-27 06:59N 17°06' W 061°54'0 0.0
2017-Dec-27 06:29N 17°06' W 061°54'0 0.1
2017-Dec-27 05:53N 17°06' W 061°54'0 0.1
2017-Dec-27 05:29N 17°06' W 061°54'0 0.1
2017-Dec-27 04:59N 17°06' W 061°54'0 0.0
2017-Dec-27 04:29N 17°06' W 061°54'0 0.0
2017-Dec-27 03:59N 17°06' W 061°54'0 0.0
2017-Dec-27 03:29N 17°06' W 061°54'0 0.0
2017-Dec-27 02:59N 17°06' W 061°54'0 0.0
2017-Dec-27 02:29N 17°06' W 061°54'0 0.0
2017-Dec-27 01:59N 17°06' W 061°54'0 0.0
2017-Dec-27 01:26N 17°06' W 061°54'0 0.1
2017-Dec-27 00:59N 17°06' W 061°54'0 0.0
2017-Dec-27 00:29N 17°06' W 061°54'0 0.0
2017-Dec-26 23:59N 17°06' W 061°54'0 0.0
2017-Dec-26 23:29N 17°06' W 061°54'0 0.0
2017-Dec-26 22:59N 17°06' W 061°54'0 0.0
2017-Dec-26 22:26N 17°06' W 061°54'0 0.0
2017-Dec-26 21:59N 17°06' W 061°54'0 0.0
2017-Dec-26 21:29N 17°06' W 061°54'0 0.0
2017-Dec-26 20:59N 17°06' W 061°54'0 0.0
2017-Dec-26 20:29N 17°06' W 061°54'0 0.1
2017-Dec-26 19:59N 17°06' W 061°54'0 0.1
2017-Dec-26 19:29N 17°06' W 061°54'0 0.1
2017-Dec-26 18:56N 17°06' W 061°54'0 0.0
2017-Dec-26 18:29N 17°06' W 061°54'0 0.0
2017-Dec-26 17:59N 17°06' W 061°54'0 0.0
2017-Dec-26 17:26N 17°06' W 061°54'0 0.1
2017-Dec-26 16:59N 17°06' W 061°54'0 0.1
2017-Dec-26 16:29N 17°06' W 061°54'0 0.0
2017-Dec-26 15:59N 17°06' W 061°54'0 0.0
2017-Dec-26 15:29N 17°06' W 061°54'0 0.1
2017-Dec-26 14:59N 17°06' W 061°54'0 0.1
2017-Dec-26 14:29N 17°06' W 061°54'0 0.0
2017-Dec-26 13:59N 17°06' W 061°54'0 0.1
2017-Dec-26 13:29N 17°06' W 061°54'0 0.1
2017-Dec-26 12:59N 17°06' W 061°54'0 0.1
2017-Dec-26 12:29N 17°06' W 061°54'0 0.1
2017-Dec-26 11:59N 17°06' W 061°54'0 0.1
2017-Dec-26 11:26N 17°06' W 061°54'0 0.1
2017-Dec-26 10:59N 17°06' W 061°54'0 0.0
2017-Dec-26 10:29N 17°06' W 061°54'0 0.0
2017-Dec-26 09:59N 17°06' W 061°54'0 0.0
2017-Dec-26 09:29N 17°06' W 061°54'0 0.0
2017-Dec-26 08:59N 17°06' W 061°54'0 0.0
2017-Dec-26 08:29N 17°06' W 061°54'0 0.0
2017-Dec-26 07:59N 17°06' W 061°54'0 0.0
2017-Dec-26 07:29N 17°06' W 061°54'0 0.0
2017-Dec-26 06:59N 17°06' W 061°54'0 0.0
2017-Dec-26 06:29N 17°06' W 061°54'0 0.0
2017-Dec-26 05:59N 17°06' W 061°54'0 0.0
2017-Dec-26 05:29N 17°06' W 061°54'0 0.0
2017-Dec-26 04:59N 17°06' W 061°54'0 0.0
2017-Dec-26 04:26N 17°06' W 061°54'0 0.0
2017-Dec-26 03:59N 17°06' W 061°54'0 0.0
2017-Dec-26 03:29N 17°06' W 061°54'0 0.0
2017-Dec-26 02:59N 17°06' W 061°54'0 0.0
2017-Dec-26 02:29N 17°06' W 061°54'0 0.0
2017-Dec-26 01:59N 17°06' W 061°54'0 0.0
2017-Dec-26 01:23N 17°06' W 061°54'0 0.0
2017-Dec-26 00:59N 17°06' W 061°54'0 0.0
2017-Dec-26 00:29N 17°06' W 061°54'0 0.1
2017-Dec-25 23:59N 17°06' W 061°54'0 0.0
2017-Dec-25 23:29N 17°06' W 061°54'0 0.0
2017-Dec-25 22:56N 17°06' W 061°54'0 0.0
2017-Dec-25 22:29N 17°06' W 061°54'0 0.0
2017-Dec-25 21:59N 17°06' W 061°54'0 0.5
2017-Dec-25 21:30N 17°06' W 061°54'0 0.0
2017-Dec-25 21:00N 17°06' W 061°54'0 0.0
2017-Dec-25 20:30N 17°06' W 061°54'0 0.1
2017-Dec-25 20:00N 17°06' W 061°54'0 0.1
2017-Dec-25 19:30N 17°06' W 061°54'0 0.0
2017-Dec-25 19:00N 17°06' W 061°54'0 0.0
2017-Dec-25 18:30N 17°06' W 061°54'0 0.4
2017-Dec-25 17:57N 17°06' W 061°54'0 0.1
2017-Dec-25 17:30N 17°06' W 061°54'0 0.0
2017-Dec-25 17:00N 17°06' W 061°54'0 0.0
2017-Dec-25 16:30N 17°06' W 061°54'0 0.0
2017-Dec-25 16:00N 17°06' W 061°54'0 0.0
2017-Dec-25 15:30N 17°06' W 061°54'0 0.0
2017-Dec-25 14:57N 17°06' W 061°54'0 0.0
2017-Dec-25 14:30N 17°06' W 061°54'0 0.0
2017-Dec-25 14:00N 17°06' W 061°54'0 0.0
2017-Dec-25 13:30N 17°06' W 061°54'0 0.0
2017-Dec-25 13:00N 17°06' W 061°54'0 0.0
2017-Dec-25 12:30N 17°06' W 061°54'0 0.0
2017-Dec-25 12:00N 17°06' W 061°54'0 0.0
2017-Dec-25 11:30N 17°06' W 061°54'0 0.0
2017-Dec-25 10:57N 17°06' W 061°54'0 0.0
2017-Dec-25 10:30N 17°06' W 061°54'0 0.0
2017-Dec-25 10:00N 17°06' W 061°54'0 0.0
2017-Dec-25 09:30N 17°06' W 061°54'0 0.0
2017-Dec-25 09:00N 17°06' W 061°54'0 0.0
2017-Dec-25 08:30N 17°06' W 061°54'0 0.0
2017-Dec-25 08:00N 17°06' W 061°54'0 0.0
2017-Dec-25 07:30N 17°06' W 061°54'0 0.0
2017-Dec-25 07:00N 17°06' W 061°54'0 0.0
2017-Dec-25 06:30N 17°06' W 061°54'0 0.0
2017-Dec-25 06:00N 17°06' W 061°54'0 0.0
2017-Dec-25 05:30N 17°06' W 061°54'0 0.0
2017-Dec-25 05:00N 17°06' W 061°54'0 0.0
2017-Dec-25 04:30N 17°06' W 061°54'0 0.0
2017-Dec-25 04:00N 17°06' W 061°54'0 0.0
2017-Dec-25 03:30N 17°06' W 061°54'  

Dump ship's entire track history